Heat Index SAI AWOS Graphical Display Untitled Document
Phillipsburg Municipal , Kansas (PHG)
000
03:41
18/04/23
00
N/A
N/A
30.18
N/A
1907
49(F), 9(C)
38(F), 3(C)
49 F
66%
SCT065
10
N/A
N/A
N/A
03:41 zulu Wind Calm, Altimeter 30.18
METAR KPHG 230341Z AUTO 00000KT 10SM SCT065 09/03 A3018 A02
METAR:
FAA Disclaimer--Advisory Use ONLY, not for flight info-- 10/06/2008: Welcome to the Phillipsburg Municipal , Kansas (PHG) Graphical AWOS weather display. Airport 785-543-5424, AWOS: 119.125 AWOS Phone Number: 785/543-8960
INFO:
Wind Direction:
Wind Speed:
Wind Gust:
Wind Variable:
Altimeter:
Dens Alt:
Elev:
Temp:
Dwpt:
Wind Chill
Rel Humidity:
Ceiling:
Visibility:
Prsnt Wea:
PCPN:
Remarks:
How to read the WebPage